createdAt,value
2018-07-04T00:00:46.486Z,56.9
2018-07-04T00:01:47.878Z,56.9
2018-07-04T00:02:49.272Z,56.4
2018-07-04T00:03:50.668Z,56.3
2018-07-04T00:04:52.060Z,56.2
2018-07-04T00:05:53.460Z,55.8
2018-07-04T00:06:54.856Z,55.5
2018-07-04T00:07:56.251Z,55.8
2018-07-04T00:08:57.647Z,55.9
2018-07-04T00:09:59.040Z,55.8
2018-07-04T00:11:00.437Z,55.9
2018-07-04T00:12:01.832Z,55.6
2018-07-04T00:13:03.226Z,55.6
2018-07-04T00:14:04.625Z,56.3
2018-07-04T00:15:06.016Z,56.4
2018-07-04T00:16:07.406Z,56.3
2018-07-04T00:17:08.799Z,56.1
2018-07-04T00:18:10.191Z,56.5
2018-07-04T00:19:11.591Z,56.5
2018-07-04T00:20:12.986Z,57.0
2018-07-04T00:21:14.381Z,56.6
2018-07-04T00:22:15.783Z,56.8
2018-07-04T00:23:17.167Z,57.2
2018-07-04T00:24:18.559Z,57.1
2018-07-04T00:25:19.951Z,57.1
2018-07-04T00:26:21.346Z,57.2
2018-07-04T00:27:22.748Z,56.4
2018-07-04T00:28:24.167Z,57.3
2018-07-04T00:29:25.587Z,57.7
2018-07-04T00:30:26.961Z,58.6
2018-07-04T00:31:28.348Z,58.4
2018-07-04T00:32:29.750Z,58.1
2018-07-04T00:33:31.147Z,58.5
2018-07-04T00:34:32.544Z,59.3
2018-07-04T00:35:33.937Z,58.8
2018-07-04T00:36:35.335Z,59.1
2018-07-04T00:37:36.731Z,58.7
2018-07-04T00:38:38.123Z,57.8
2018-07-04T00:39:39.517Z,58.8
2018-07-04T00:40:40.918Z,58.5
2018-07-04T00:41:42.328Z,57.9
2018-07-04T00:42:43.725Z,58.3
2018-07-04T00:43:45.120Z,58.4
2018-07-04T00:44:46.517Z,57.7
2018-07-04T00:45:47.911Z,58.3
2018-07-04T00:46:49.346Z,58.4
2018-07-04T00:47:50.697Z,58.1
2018-07-04T00:48:52.092Z,58.7
2018-07-04T00:49:53.496Z,58.9
2018-07-04T00:50:54.890Z,59.6
2018-07-04T00:51:56.284Z,58.5
2018-07-04T00:52:57.676Z,58.4
2018-07-04T00:53:59.072Z,58.4
2018-07-04T00:55:00.466Z,59.4
2018-07-04T00:56:01.865Z,61.5
2018-07-04T00:57:03.258Z,60.5
2018-07-04T00:58:04.654Z,60.1
2018-07-04T00:59:06.055Z,60.8
2018-07-04T01:00:07.440Z,60.4
2018-07-04T01:01:08.834Z,59.4
2018-07-04T01:02:10.230Z,58.7
2018-07-04T01:03:11.628Z,59.4
2018-07-04T01:04:13.040Z,59.3
2018-07-04T01:05:14.436Z,59.1
2018-07-04T01:06:15.832Z,58.9
2018-07-04T01:07:17.223Z,59.0
2018-07-04T01:08:18.623Z,59.5
2018-07-04T01:09:20.016Z,61.1
2018-07-04T01:10:21.413Z,61.1
2018-07-04T01:11:22.808Z,61.0
2018-07-04T01:12:24.204Z,61.5
2018-07-04T01:13:25.597Z,60.9
2018-07-04T01:14:26.993Z,61.6
2018-07-04T01:15:28.388Z,61.4
2018-07-04T01:16:29.782Z,61.2
2018-07-04T01:17:31.178Z,62.3
2018-07-04T01:18:32.582Z,62.3
2018-07-04T01:19:33.973Z,61.9
2018-07-04T01:20:35.371Z,62.0
2018-07-04T01:21:36.764Z,61.3
2018-07-04T01:22:38.156Z,61.5
2018-07-04T01:23:39.554Z,61.3
2018-07-04T01:24:41.004Z,61.0
2018-07-04T01:25:42.383Z,61.4
2018-07-04T01:26:43.781Z,61.1
2018-07-04T01:27:45.175Z,61.2
2018-07-04T01:28:46.569Z,60.7
2018-07-04T01:29:47.962Z,60.5
2018-07-04T01:30:49.358Z,61.4
2018-07-04T01:31:50.755Z,62.3
2018-07-04T01:32:52.160Z,62.2
2018-07-04T01:33:53.558Z,61.6
2018-07-04T01:34:54.950Z,62.2
2018-07-04T01:35:56.343Z,61.6
2018-07-04T01:36:57.739Z,61.4
2018-07-04T01:37:59.137Z,61.0
2018-07-04T01:39:00.536Z,61.4
2018-07-04T01:40:01.928Z,61.4
2018-07-04T01:41:03.326Z,61.7
2018-07-04T01:42:04.716Z,61.3
2018-07-04T01:43:06.110Z,62.2
2018-07-04T01:44:07.502Z,61.9
2018-07-04T01:45:08.896Z,61.3
2018-07-04T01:46:10.293Z,62.2
2018-07-04T01:47:11.686Z,62.3
2018-07-04T01:48:13.081Z,61.4
2018-07-04T01:49:14.476Z,61.5
2018-07-04T01:50:15.870Z,61.4
2018-07-04T01:51:17.266Z,62.0
2018-07-04T01:52:18.664Z,63.5
2018-07-04T01:53:20.057Z,63.9
2018-07-04T01:54:21.453Z,63.8
2018-07-04T01:55:22.851Z,63.7
2018-07-04T01:56:24.246Z,64.2
2018-07-04T01:57:25.639Z,64.6
2018-07-04T01:58:27.035Z,65.1
2018-07-04T01:59:28.430Z,65.2
2018-07-04T02:00:29.828Z,65.0
2018-07-04T02:01:31.221Z,65.0
2018-07-04T02:02:32.616Z,64.2
2018-07-04T02:03:34.012Z,63.8
2018-07-04T02:04:35.405Z,63.5
2018-07-04T02:05:36.799Z,64.4
2018-07-04T02:06:38.192Z,64.4
2018-07-04T02:07:39.595Z,64.5
2018-07-04T02:08:41.021Z,65.1
2018-07-04T02:09:42.421Z,64.9
2018-07-04T02:10:43.815Z,65.2
2018-07-04T02:11:45.207Z,65.3
2018-07-04T02:12:46.605Z,64.8
2018-07-04T02:13:48.000Z,65.0
2018-07-04T02:14:49.395Z,64.7
2018-07-04T02:15:50.792Z,65.0
2018-07-04T02:16:52.187Z,65.0
2018-07-04T02:17:53.592Z,66.1
2018-07-04T02:18:54.978Z,65.6
2018-07-04T02:19:56.373Z,66.4
2018-07-04T02:20:57.767Z,66.1
2018-07-04T02:21:59.162Z,66.5
2018-07-04T02:23:00.559Z,66.0
2018-07-04T02:24:01.960Z,66.2
2018-07-04T02:25:03.360Z,66.1
2018-07-04T02:26:04.755Z,65.4
2018-07-04T02:27:06.149Z,64.6
2018-07-04T02:28:07.545Z,65.0
2018-07-04T02:29:08.941Z,64.9
2018-07-04T02:30:10.342Z,65.9
2018-07-04T02:31:11.745Z,65.5
2018-07-04T02:32:13.139Z,66.1
2018-07-04T02:33:14.532Z,66.7
2018-07-04T02:34:15.924Z,66.7
2018-07-04T02:35:17.316Z,66.7
2018-07-04T02:36:18.716Z,66.8
2018-07-04T02:37:20.116Z,66.8
2018-07-04T02:38:21.507Z,67.2
2018-07-04T02:39:22.900Z,67.9
2018-07-04T02:40:24.298Z,68.1
2018-07-04T02:41:25.692Z,68.0
2018-07-04T02:42:27.086Z,68.0
2018-07-04T02:43:28.481Z,67.6
2018-07-04T02:44:29.872Z,68.5
2018-07-04T02:45:31.272Z,67.2
2018-07-04T02:46:32.669Z,67.3
2018-07-04T02:47:34.059Z,66.7
2018-07-04T02:48:35.460Z,67.0
2018-07-04T02:49:36.855Z,67.8
2018-07-04T02:50:38.254Z,67.9
2018-07-04T02:51:39.724Z,67.9
2018-07-04T02:52:41.123Z,68.2
2018-07-04T02:53:42.517Z,68.7
2018-07-04T02:54:43.915Z,68.3
2018-07-04T02:55:45.311Z,69.1
2018-07-04T02:56:46.705Z,69.1
2018-07-04T02:57:48.101Z,69.2
2018-07-04T02:58:49.494Z,69.7
2018-07-04T02:59:50.894Z,68.7
2018-07-04T03:00:52.285Z,68.1
2018-07-04T03:01:53.680Z,68.0
2018-07-04T03:02:55.072Z,67.0
2018-07-04T03:03:56.464Z,66.8
2018-07-04T03:04:57.859Z,67.1
2018-07-04T03:05:59.251Z,67.0
2018-07-04T03:07:00.649Z,66.7
2018-07-04T03:08:02.045Z,68.0
2018-07-04T03:09:03.435Z,68.2
2018-07-04T03:10:04.829Z,68.1
2018-07-04T03:11:06.223Z,68.7
2018-07-04T03:12:07.617Z,68.8
2018-07-04T03:13:09.014Z,68.1
2018-07-04T03:14:10.423Z,68.3
2018-07-04T03:15:11.821Z,68.5
2018-07-04T03:16:13.259Z,68.1
2018-07-04T03:17:14.655Z,68.3
2018-07-04T03:18:16.051Z,69.0
2018-07-04T03:19:17.448Z,68.8
2018-07-04T03:20:18.853Z,69.2
2018-07-04T03:21:20.249Z,69.3
2018-07-04T03:22:21.644Z,69.4
2018-07-04T03:23:23.040Z,69.3
2018-07-04T03:24:24.430Z,69.9
2018-07-04T03:25:25.829Z,69.3
2018-07-04T03:26:27.226Z,69.4
2018-07-04T03:27:28.620Z,69.5
2018-07-04T03:28:30.017Z,69.5
2018-07-04T03:29:31.413Z,69.0
2018-07-04T03:30:32.805Z,69.6
2018-07-04T03:31:34.199Z,69.3
2018-07-04T03:32:35.595Z,69.4
2018-07-04T03:33:36.991Z,69.4
2018-07-04T03:34:38.491Z,69.3
2018-07-04T03:35:39.904Z,69.5
2018-07-04T03:36:41.298Z,69.3
2018-07-04T03:37:42.692Z,69.0
2018-07-04T03:38:44.088Z,69.3
2018-07-04T03:39:45.484Z,69.3
2018-07-04T03:40:46.879Z,69.3
2018-07-04T03:41:48.275Z,69.3
2018-07-04T03:42:49.667Z,69.6
2018-07-04T03:43:51.065Z,70.2
2018-07-04T03:44:52.462Z,70.4
2018-07-04T03:45:53.849Z,70.9
2018-07-04T03:46:55.248Z,70.8
2018-07-04T03:47:56.644Z,71.0
2018-07-04T03:48:58.042Z,70.8
2018-07-04T03:49:59.436Z,70.8
2018-07-04T03:51:00.832Z,70.8
2018-07-04T03:52:02.227Z,70.7
2018-07-04T03:53:03.625Z,70.6
2018-07-04T03:54:05.022Z,70.8
2018-07-04T03:55:06.421Z,70.8
2018-07-04T03:56:07.825Z,70.5
2018-07-04T03:57:09.218Z,70.8
2018-07-04T03:58:10.624Z,71.5
2018-07-04T03:59:12.012Z,70.8
2018-07-04T04:00:13.405Z,70.8
2018-07-04T04:01:14.802Z,70.7
2018-07-04T04:02:16.203Z,71.0
2018-07-04T04:03:17.602Z,70.8
2018-07-04T04:04:19.003Z,71.0
2018-07-04T04:05:20.402Z,70.7
2018-07-04T04:06:21.800Z,71.0
2018-07-04T04:07:23.231Z,71.0
2018-07-04T04:08:24.616Z,70.7
2018-07-04T04:09:26.013Z,70.5
2018-07-04T04:10:27.417Z,70.2
2018-07-04T04:11:28.813Z,70.7
2018-07-04T04:12:30.209Z,70.7
2018-07-04T04:13:31.607Z,70.9
2018-07-04T04:14:33.016Z,70.5
2018-07-04T04:15:34.432Z,70.6
2018-07-04T04:16:35.827Z,70.7
2018-07-04T04:17:37.318Z,70.6
2018-07-04T04:18:38.737Z,69.7
2018-07-04T04:19:40.138Z,69.8
2018-07-04T04:20:41.582Z,69.6
2018-07-04T04:21:42.994Z,69.5
2018-07-04T04:22:44.386Z,69.6
2018-07-04T04:23:45.784Z,69.7
2018-07-04T04:24:47.198Z,69.6
2018-07-04T04:25:48.577Z,69.5
2018-07-04T04:26:49.975Z,69.7
2018-07-04T04:27:51.407Z,69.3
2018-07-04T04:28:52.812Z,69.3
2018-07-04T04:29:54.207Z,69.6
2018-07-04T04:30:55.616Z,69.1
2018-07-04T04:31:58.300Z,68.9
2018-07-04T04:33:00.079Z,69.3
2018-07-04T04:34:01.875Z,69.5
2018-07-04T04:35:03.269Z,69.2
2018-07-04T04:36:04.686Z,68.0
2018-07-04T04:37:06.093Z,67.5
2018-07-04T04:38:07.489Z,67.1
2018-07-04T04:39:08.898Z,67.1
2018-07-04T04:40:10.290Z,67.5
2018-07-04T04:41:11.683Z,67.6
2018-07-04T04:42:13.082Z,68.2
2018-07-04T04:43:14.479Z,68.4
2018-07-04T04:44:15.874Z,68.1
2018-07-04T04:45:17.274Z,67.7
2018-07-04T04:46:18.672Z,68.0
2018-07-04T04:47:20.073Z,68.4
2018-07-04T04:48:21.472Z,68.4
2018-07-04T04:49:22.879Z,67.9
2018-07-04T04:50:24.281Z,67.7
2018-07-04T04:51:25.677Z,66.8
2018-07-04T04:52:27.079Z,66.7
2018-07-04T04:53:28.486Z,66.8
2018-07-04T04:54:29.890Z,66.5
2018-07-04T04:55:31.292Z,65.6
2018-07-04T04:56:32.687Z,65.9
2018-07-04T04:57:34.159Z,65.5
2018-07-04T04:58:35.614Z,65.0
2018-07-04T04:59:37.016Z,64.7
2018-07-04T05:00:38.414Z,65.1
2018-07-04T05:01:39.813Z,65.2
2018-07-04T05:02:41.207Z,64.7
2018-07-04T05:03:42.691Z,64.8
2018-07-04T05:04:44.104Z,64.9
2018-07-04T05:05:45.644Z,64.3
2018-07-04T05:06:46.996Z,64.5
2018-07-04T05:07:48.401Z,64.5
2018-07-04T05:08:49.798Z,64.3
2018-07-04T05:09:51.199Z,65.1
2018-07-04T05:10:52.599Z,65.1
2018-07-04T05:11:54.015Z,64.4
2018-07-04T05:12:55.416Z,64.7
2018-07-04T05:13:56.853Z,64.9
2018-07-04T05:14:58.260Z,64.9
2018-07-04T05:15:59.660Z,64.9
2018-07-04T05:17:01.057Z,65.2
2018-07-04T05:18:02.457Z,65.8
2018-07-04T05:19:03.855Z,66.0
2018-07-04T05:20:05.516Z,65.8
2018-07-04T05:21:06.881Z,65.2
2018-07-04T05:22:08.285Z,65.4
2018-07-04T05:23:09.686Z,66.4
2018-07-04T05:24:11.120Z,65.2
2018-07-04T05:25:12.565Z,65.2
2018-07-04T05:26:13.971Z,65.9
2018-07-04T05:27:15.379Z,65.6
2018-07-04T05:28:16.796Z,66.3
2018-07-04T05:29:18.186Z,66.0
2018-07-04T05:30:19.587Z,66.1
2018-07-04T05:31:20.988Z,66.2
2018-07-04T05:32:22.389Z,66.0
2018-07-04T05:33:23.822Z,65.8
2018-07-04T05:34:25.225Z,65.3
2018-07-04T05:35:26.695Z,66.0
2018-07-04T05:36:28.093Z,66.7
2018-07-04T05:37:29.493Z,66.2
2018-07-04T05:38:30.909Z,66.0
2018-07-04T05:39:32.287Z,65.4
2018-07-04T05:40:33.686Z,65.3
2018-07-04T05:41:35.111Z,64.8
2018-07-04T05:42:36.513Z,64.8
2018-07-04T05:43:37.930Z,65.2
2018-07-04T05:44:39.404Z,65.8
2018-07-04T05:45:40.811Z,65.7
2018-07-04T05:46:42.212Z,65.2
2018-07-04T05:47:43.847Z,64.0
2018-07-04T05:48:45.025Z,63.8
2018-07-04T05:49:46.458Z,63.2
2018-07-04T05:50:47.859Z,63.3
2018-07-04T05:51:49.260Z,63.4
2018-07-04T05:52:50.658Z,63.3
2018-07-04T05:53:52.076Z,62.9
2018-07-04T05:54:53.480Z,63.0
2018-07-04T05:55:54.878Z,62.9
2018-07-04T05:56:56.279Z,63.6
2018-07-04T05:57:57.678Z,63.1
2018-07-04T05:58:59.077Z,63.4
2018-07-04T06:00:00.483Z,63.4
2018-07-04T06:01:01.880Z,63.5
2018-07-04T06:02:03.277Z,63.0
2018-07-04T06:03:04.676Z,63.0
2018-07-04T06:04:06.073Z,63.0
2018-07-04T06:05:07.482Z,62.9
2018-07-04T06:06:08.886Z,61.9
2018-07-04T06:07:10.280Z,61.9
2018-07-04T06:08:11.682Z,61.8
2018-07-04T06:09:13.182Z,62.6
2018-07-04T06:10:14.517Z,62.8
2018-07-04T06:11:15.917Z,62.9
2018-07-04T06:12:17.320Z,62.9
2018-07-04T06:13:18.719Z,63.3
2018-07-04T06:14:20.116Z,62.9
2018-07-04T06:15:21.516Z,63.5
2018-07-04T06:16:22.913Z,63.8
2018-07-04T06:17:24.314Z,63.6
2018-07-04T06:18:25.711Z,63.9
2018-07-04T06:19:27.111Z,63.7
2018-07-04T06:20:28.511Z,63.0
2018-07-04T06:21:29.908Z,62.9
2018-07-04T06:22:31.305Z,62.9
2018-07-04T06:23:32.708Z,63.0
2018-07-04T06:24:34.106Z,62.5
2018-07-04T06:25:35.510Z,62.3
2018-07-04T06:26:36.912Z,62.2
2018-07-04T06:27:38.312Z,61.8
2018-07-04T06:28:39.753Z,61.8
2018-07-04T06:29:41.190Z,61.5
2018-07-04T06:30:42.590Z,61.4
2018-07-04T06:31:43.989Z,61.3
2018-07-04T06:32:45.398Z,60.8
2018-07-04T06:33:46.800Z,61.2
2018-07-04T06:34:48.202Z,61.3
2018-07-04T06:35:49.600Z,60.3
2018-07-04T06:36:51.000Z,59.1
2018-07-04T06:37:52.408Z,59.5
2018-07-04T06:38:53.819Z,59.4
2018-07-04T06:39:55.229Z,58.6
2018-07-04T06:40:56.631Z,59.3
2018-07-04T06:41:58.034Z,58.7
2018-07-04T06:42:59.437Z,58.5
2018-07-04T06:44:00.834Z,58.4
2018-07-04T06:45:02.245Z,58.9
2018-07-04T06:46:03.641Z,57.3
2018-07-04T06:47:05.042Z,58.5
2018-07-04T06:48:06.446Z,58.9
2018-07-04T06:49:07.885Z,58.0
2018-07-04T06:50:09.242Z,56.5
2018-07-04T06:51:10.644Z,56.6
2018-07-04T06:52:12.050Z,56.6
2018-07-04T06:53:13.449Z,56.0
2018-07-04T06:54:14.923Z,55.7
2018-07-04T06:55:16.253Z,56.0
2018-07-04T06:56:17.662Z,56.6
2018-07-04T06:57:19.053Z,56.0
2018-07-04T06:58:20.458Z,55.9
2018-07-04T06:59:21.858Z,56.1
2018-07-04T07:00:23.263Z,56.5
2018-07-04T07:01:24.664Z,56.5
2018-07-04T07:02:26.065Z,56.7
2018-07-04T07:03:27.469Z,56.6
2018-07-04T07:04:28.866Z,56.7
2018-07-04T07:05:30.268Z,55.5
2018-07-04T07:06:31.667Z,55.6
2018-07-04T07:07:33.075Z,55.7
2018-07-04T07:08:34.523Z,56.5
2018-07-04T07:09:35.877Z,56.5
2018-07-04T07:10:37.275Z,56.6
2018-07-04T07:11:38.683Z,55.9
2018-07-04T07:12:40.151Z,56.5
2018-07-04T07:13:41.554Z,56.7
2018-07-04T07:14:42.955Z,56.5
2018-07-04T07:15:44.361Z,56.1
2018-07-04T07:16:45.772Z,56.0
2018-07-04T07:17:47.168Z,55.7
2018-07-04T07:18:48.566Z,55.1
2018-07-04T07:19:49.967Z,52.8
2018-07-04T07:20:51.380Z,51.9
2018-07-04T07:21:52.768Z,52.7
2018-07-04T07:22:54.169Z,53.3
2018-07-04T07:23:55.578Z,53.7
2018-07-04T07:24:56.987Z,53.5
2018-07-04T07:25:58.383Z,53.5
2018-07-04T07:26:59.787Z,53.7
2018-07-04T07:28:01.188Z,53.6
2018-07-04T07:29:02.590Z,53.9
2018-07-04T07:30:04.007Z,53.2
2018-07-04T07:31:05.404Z,52.9
2018-07-04T07:32:06.819Z,52.9
2018-07-04T07:33:08.206Z,53.9
2018-07-04T07:34:09.643Z,54.1
2018-07-04T07:35:11.008Z,54.6
2018-07-04T07:36:12.427Z,55.1
2018-07-04T07:37:13.821Z,54.8
2018-07-04T07:38:15.226Z,55.0
2018-07-04T07:39:16.626Z,55.0
2018-07-04T07:40:18.027Z,54.7
2018-07-04T07:41:19.430Z,54.8
2018-07-04T07:42:20.833Z,54.7
2018-07-04T07:43:22.227Z,54.9
2018-07-04T07:44:23.631Z,53.6
2018-07-04T07:45:25.041Z,54.2
2018-07-04T07:46:26.450Z,54.6
2018-07-04T07:47:27.850Z,54.5
2018-07-04T07:48:29.269Z,53.9
2018-07-04T07:49:30.670Z,53.5
2018-07-04T07:50:32.075Z,52.7
2018-07-04T07:51:33.479Z,52.8
2018-07-04T07:52:34.883Z,52.5
2018-07-04T07:53:36.286Z,52.4
2018-07-04T07:54:37.687Z,51.4
2018-07-04T07:55:39.185Z,51.4
2018-07-04T07:56:40.604Z,51.4
2018-07-04T07:57:42.004Z,50.2
2018-07-04T07:58:43.405Z,50.2
2018-07-04T07:59:44.813Z,49.3
2018-07-04T08:00:46.217Z,49.1
2018-07-04T08:01:47.667Z,49.0
2018-07-04T08:02:49.017Z,47.6
2018-07-04T08:03:50.417Z,47.3
2018-07-04T08:04:51.821Z,48.0
2018-07-04T08:05:53.233Z,47.6
2018-07-04T08:06:54.622Z,48.5
2018-07-04T08:07:56.023Z,48.0
2018-07-04T08:08:57.420Z,48.1
2018-07-04T08:09:58.819Z,47.6
2018-07-04T08:11:00.238Z,47.8
2018-07-04T08:12:01.638Z,48.6
2018-07-04T08:13:03.043Z,49.0
2018-07-04T08:14:04.446Z,49.0
2018-07-04T08:15:05.846Z,49.1
2018-07-04T08:16:07.254Z,49.1
2018-07-04T08:17:08.652Z,49.4
2018-07-04T08:18:10.054Z,49.2
2018-07-04T08:19:11.463Z,49.3
2018-07-04T08:20:12.864Z,48.4
2018-07-04T08:21:14.266Z,48.8
2018-07-04T08:22:15.670Z,48.9
2018-07-04T08:23:17.070Z,48.2
2018-07-04T08:24:18.471Z,48.9
2018-07-04T08:25:19.871Z,48.4
2018-07-04T08:26:21.278Z,49.0
2018-07-04T08:27:22.676Z,49.4
2018-07-04T08:28:24.080Z,48.9
2018-07-04T08:29:25.483Z,49.0
2018-07-04T08:30:26.888Z,49.5
2018-07-04T08:31:28.286Z,49.2
2018-07-04T08:32:29.690Z,49.2
2018-07-04T08:33:31.147Z,48.9
2018-07-04T08:34:32.504Z,49.5
2018-07-04T08:35:33.905Z,49.5
2018-07-04T08:36:35.318Z,49.0
2018-07-04T08:37:36.708Z,49.1
2018-07-04T08:38:38.195Z,49.5
2018-07-04T08:39:39.621Z,49.3
2018-07-04T08:40:41.016Z,49.0
2018-07-04T08:41:42.426Z,49.2
2018-07-04T08:42:43.830Z,48.7
2018-07-04T08:43:45.235Z,48.6
2018-07-04T08:44:46.679Z,49.3
2018-07-04T08:45:48.037Z,49.2
2018-07-04T08:46:49.442Z,49.4
2018-07-04T08:47:50.841Z,49.5
2018-07-04T08:48:52.242Z,50.7
2018-07-04T08:49:53.642Z,50.5
2018-07-04T08:50:55.048Z,50.0
2018-07-04T08:51:56.460Z,50.9
2018-07-04T08:52:57.932Z,50.4
2018-07-04T08:53:59.262Z,50.2
2018-07-04T08:55:00.668Z,50.3
2018-07-04T08:56:02.066Z,50.4
2018-07-04T08:57:03.471Z,51.7
2018-07-04T08:58:04.874Z,50.8
2018-07-04T08:59:06.283Z,51.1
2018-07-04T09:00:07.685Z,51.7
2018-07-04T09:01:09.092Z,52.1
2018-07-04T09:02:10.489Z,51.8
2018-07-04T09:03:11.892Z,52.2
2018-07-04T09:04:13.306Z,53.0
2018-07-04T09:05:14.721Z,53.6
2018-07-04T09:06:16.110Z,53.1
2018-07-04T09:07:17.510Z,53.0
2018-07-04T09:08:18.908Z,52.4
2018-07-04T09:09:20.319Z,53.0
2018-07-04T09:10:21.721Z,53.0
2018-07-04T09:11:23.119Z,53.6
2018-07-04T09:12:24.526Z,54.0
2018-07-04T09:13:25.959Z,54.6
2018-07-04T09:14:27.327Z,54.1
2018-07-04T09:15:28.730Z,53.7
2018-07-04T09:16:30.126Z,53.9
2018-07-04T09:17:31.539Z,55.1
2018-07-04T09:18:32.962Z,55.9
2018-07-04T09:19:34.358Z,57.8
2018-07-04T09:20:35.759Z,60.9
2018-07-04T09:21:37.268Z,63.0
2018-07-04T09:22:38.654Z,66.0
2018-07-04T09:23:40.056Z,70.5
2018-07-04T09:24:41.953Z,72.4
2018-07-04T09:25:42.852Z,71.3
2018-07-04T09:26:44.255Z,72.9
2018-07-04T09:27:45.659Z,73.8
2018-07-04T09:28:47.059Z,73.5
2018-07-04T09:29:48.462Z,73.5
2018-07-04T09:30:49.870Z,73.8
2018-07-04T09:31:51.280Z,72.6
2018-07-04T09:32:52.695Z,71.9
2018-07-04T09:33:54.101Z,71.2
2018-07-04T09:34:55.491Z,72.2
2018-07-04T09:35:56.904Z,72.1
2018-07-04T09:36:58.303Z,71.4
2018-07-04T09:37:59.707Z,72.3
2018-07-04T09:39:01.109Z,72.7
2018-07-04T09:40:02.509Z,72.7
2018-07-04T09:41:03.920Z,69.9
2018-07-04T09:42:05.328Z,68.2
2018-07-04T09:43:06.725Z,67.5
2018-07-04T09:44:08.134Z,68.5
2018-07-04T09:45:09.534Z,66.5
2018-07-04T09:46:10.937Z,66.0
2018-07-04T09:47:12.341Z,65.3
2018-07-04T09:48:13.749Z,65.0
2018-07-04T09:49:15.150Z,65.2
2018-07-04T09:50:16.559Z,65.6
2018-07-04T09:51:17.957Z,66.5
2018-07-04T09:52:19.364Z,65.8
2018-07-04T09:53:20.768Z,62.0
2018-07-04T09:54:22.173Z,61.6
2018-07-04T09:55:23.575Z,61.1
2018-07-04T09:56:24.979Z,60.9
2018-07-04T09:57:26.380Z,61.4
2018-07-04T09:58:27.782Z,60.7
2018-07-04T09:59:29.189Z,60.8
2018-07-04T10:00:30.587Z,58.5
2018-07-04T10:01:31.993Z,59.2
2018-07-04T10:02:33.398Z,59.3
2018-07-04T10:03:34.829Z,58.4
2018-07-04T10:04:36.282Z,57.6
2018-07-04T10:05:37.721Z,58.0
2018-07-04T10:06:39.090Z,57.6
2018-07-04T10:07:40.490Z,57.0
2018-07-04T10:08:41.894Z,56.6
2018-07-04T10:09:43.301Z,54.7
2018-07-04T10:10:44.699Z,55.1
2018-07-04T10:11:46.102Z,55.9
2018-07-04T10:12:47.504Z,56.8
2018-07-04T10:13:48.913Z,56.3
2018-07-04T10:14:50.325Z,56.4
2018-07-04T10:15:51.736Z,57.1
2018-07-04T10:16:53.145Z,57.0
2018-07-04T10:17:54.631Z,55.7
2018-07-04T10:18:56.034Z,56.9
2018-07-04T10:19:57.439Z,56.5
2018-07-04T10:20:58.841Z,56.1
2018-07-04T10:22:00.245Z,55.0
2018-07-04T10:23:01.650Z,55.0
2018-07-04T10:24:03.057Z,54.9
2018-07-04T10:25:04.450Z,54.0
2018-07-04T10:26:05.856Z,54.5
2018-07-04T10:27:07.262Z,54.7
2018-07-04T10:28:08.664Z,54.9
2018-07-04T10:29:10.096Z,54.3
2018-07-04T10:30:11.471Z,55.3
2018-07-04T10:31:12.877Z,55.1
2018-07-04T10:32:14.279Z,54.8
2018-07-04T10:33:15.679Z,54.5
2018-07-04T10:34:17.141Z,55.7
2018-07-04T10:35:18.490Z,56.3
2018-07-04T10:36:19.893Z,56.4
2018-07-04T10:37:21.297Z,56.8
2018-07-04T10:38:22.705Z,56.7
2018-07-04T10:39:24.107Z,57.1
2018-07-04T10:40:25.516Z,56.1
2018-07-04T10:41:26.918Z,56.3
2018-07-04T10:42:28.321Z,56.7
2018-07-04T10:43:29.724Z,57.1
2018-07-04T10:44:32.075Z,56.9
2018-07-04T10:45:33.606Z,57.3
2018-07-04T10:46:35.050Z,56.9
2018-07-04T10:47:36.445Z,55.2
2018-07-04T10:48:37.851Z,54.8
2018-07-04T10:49:39.252Z,54.8
2018-07-04T10:50:40.657Z,54.0
2018-07-04T10:51:42.061Z,54.6
2018-07-04T10:52:43.470Z,53.5
2018-07-04T10:53:44.872Z,52.5
2018-07-04T10:54:46.279Z,53.5
2018-07-04T10:55:47.688Z,51.2
2018-07-04T10:56:49.102Z,51.4
2018-07-04T10:57:50.506Z,51.5
2018-07-04T10:58:51.912Z,51.5
2018-07-04T10:59:53.320Z,51.8
2018-07-04T11:00:54.725Z,52.4
2018-07-04T11:01:56.128Z,50.7
2018-07-04T11:02:57.531Z,51.6
2018-07-04T11:03:59.838Z,51.8
2018-07-04T11:05:01.244Z,49.8
2018-07-04T11:06:02.649Z,50.4
2018-07-04T11:07:04.058Z,51.9
2018-07-04T11:08:05.465Z,52.0
2018-07-04T11:09:06.868Z,51.6
2018-07-04T11:10:08.288Z,51.5
2018-07-04T11:11:09.679Z,50.3
2018-07-04T11:12:11.085Z,49.7
2018-07-04T11:13:12.490Z,48.9
2018-07-04T11:14:13.896Z,49.3
2018-07-04T11:15:15.301Z,50.6
2018-07-04T11:16:16.702Z,50.9
2018-07-04T11:17:18.103Z,49.5
2018-07-04T11:18:19.509Z,49.6
2018-07-04T11:19:20.910Z,49.8
2018-07-04T11:20:22.314Z,50.3
2018-07-04T11:21:23.722Z,50.9
2018-07-04T11:22:25.154Z,50.7
2018-07-04T11:23:26.549Z,51.5
2018-07-04T11:24:27.951Z,52.5
2018-07-04T11:25:29.354Z,53.2
2018-07-04T11:26:30.857Z,53.9
2018-07-04T11:27:32.281Z,53.9
2018-07-04T11:28:33.716Z,54.6
2018-07-04T11:29:35.090Z,54.0
2018-07-04T11:30:36.500Z,54.5
2018-07-04T11:31:37.897Z,54.2
2018-07-04T11:32:39.308Z,54.0
2018-07-04T11:33:40.708Z,54.5
2018-07-04T11:34:42.120Z,55.0
2018-07-04T11:35:43.531Z,54.9
2018-07-04T11:36:44.930Z,55.2
2018-07-04T11:37:46.335Z,55.9
2018-07-04T11:38:47.741Z,54.9
2018-07-04T11:39:49.146Z,55.3
2018-07-04T11:40:50.547Z,55.2
2018-07-04T11:41:51.952Z,55.8
2018-07-04T11:42:53.355Z,55.6
2018-07-04T11:43:54.755Z,55.7
2018-07-04T11:44:56.149Z,56.0
2018-07-04T11:45:57.550Z,56.7
2018-07-04T11:46:58.951Z,56.7
2018-07-04T11:48:00.353Z,56.4
2018-07-04T11:49:01.757Z,56.7
2018-07-04T11:50:03.161Z,56.5
2018-07-04T11:51:04.568Z,56.8
2018-07-04T11:52:05.965Z,56.7
2018-07-04T11:53:07.381Z,57.0
2018-07-04T11:54:08.780Z,57.7
2018-07-04T11:55:10.172Z,58.5
2018-07-04T11:56:11.574Z,59.2
2018-07-04T11:57:12.975Z,59.2
2018-07-04T11:58:14.376Z,58.9
2018-07-04T11:59:15.830Z,58.8
2018-07-04T12:00:17.238Z,58.7
2018-07-04T12:01:18.637Z,58.1
2018-07-04T12:02:20.037Z,58.8
2018-07-04T12:03:21.434Z,59.1
2018-07-04T12:04:22.839Z,58.5
2018-07-04T12:05:24.257Z,58.7
2018-07-04T12:06:25.635Z,58.1
2018-07-04T12:07:27.034Z,58.5
2018-07-04T12:08:28.431Z,59.0
2018-07-04T12:09:29.884Z,58.8
2018-07-04T12:10:31.289Z,59.1
2018-07-04T12:11:32.689Z,59.6
2018-07-04T12:12:34.090Z,59.9
2018-07-04T12:13:35.490Z,59.7
2018-07-04T12:14:36.909Z,59.9
2018-07-04T12:15:38.319Z,59.9
2018-07-04T12:16:39.725Z,60.9
2018-07-04T12:17:41.124Z,60.6
2018-07-04T12:18:42.533Z,60.7
2018-07-04T12:19:43.934Z,60.7
2018-07-04T12:20:45.335Z,61.0
2018-07-04T12:21:46.733Z,60.8
2018-07-04T12:22:48.140Z,61.0
2018-07-04T12:23:49.543Z,60.9
2018-07-04T12:24:50.943Z,61.6
2018-07-04T12:25:52.346Z,61.8
2018-07-04T12:26:53.779Z,61.6
2018-07-04T12:27:55.146Z,63.1
2018-07-04T12:28:56.547Z,63.5
2018-07-04T12:29:57.948Z,64.8
2018-07-04T12:30:59.357Z,65.3
2018-07-04T12:32:00.806Z,65.6
2018-07-04T12:33:02.167Z,66.5
2018-07-04T12:34:03.576Z,65.7
2018-07-04T12:35:04.977Z,67.2
2018-07-04T12:36:06.388Z,67.1
2018-07-04T12:37:07.781Z,66.2
2018-07-04T12:38:09.228Z,67.2
2018-07-04T12:39:10.623Z,66.0
2018-07-04T12:40:12.026Z,66.7
2018-07-04T12:41:13.424Z,65.6
2018-07-04T12:42:14.825Z,66.3
2018-07-04T12:43:16.250Z,66.4
2018-07-04T12:44:17.629Z,68.8
2018-07-04T12:45:19.028Z,67.3
2018-07-04T12:46:20.428Z,67.2
2018-07-04T12:47:21.873Z,67.2
2018-07-04T12:48:23.267Z,66.0
2018-07-04T12:49:24.657Z,66.7
2018-07-04T12:50:26.060Z,65.9
2018-07-04T12:51:27.525Z,66.2
2018-07-04T12:52:28.982Z,66.2
2018-07-04T12:53:30.385Z,65.4
2018-07-04T12:54:31.821Z,64.7
2018-07-04T12:55:33.194Z,65.1
2018-07-04T12:56:34.595Z,65.5
2018-07-04T12:57:35.999Z,65.3
2018-07-04T12:58:37.394Z,65.2
2018-07-04T12:59:38.808Z,65.0
2018-07-04T13:00:40.234Z,65.2
2018-07-04T13:01:41.607Z,65.9
2018-07-04T13:02:43.006Z,67.2
2018-07-04T13:03:44.407Z,67.1
2018-07-04T13:04:45.807Z,68.2
2018-07-04T13:05:47.210Z,67.2
2018-07-04T13:06:48.612Z,67.5
2018-07-04T13:07:50.015Z,67.7
2018-07-04T13:08:51.421Z,68.3
2018-07-04T13:09:52.823Z,68.2
2018-07-04T13:10:54.235Z,68.4
2018-07-04T13:11:55.637Z,69.0
2018-07-04T13:12:57.041Z,68.8
2018-07-04T13:13:58.450Z,68.7
2018-07-04T13:14:59.849Z,68.9
2018-07-04T13:16:01.253Z,68.7
2018-07-04T13:17:02.664Z,68.5
2018-07-04T13:18:04.067Z,69.1
2018-07-04T13:19:05.468Z,69.0
2018-07-04T13:20:06.869Z,68.7
2018-07-04T13:21:08.284Z,68.6
2018-07-04T13:22:09.689Z,68.7
2018-07-04T13:23:11.088Z,68.3
2018-07-04T13:24:12.502Z,69.1
2018-07-04T13:25:13.900Z,67.9
2018-07-04T13:26:15.302Z,68.1
2018-07-04T13:27:16.703Z,67.4
2018-07-04T13:28:18.104Z,66.9
2018-07-04T13:29:19.506Z,66.6
2018-07-04T13:30:20.911Z,66.6
2018-07-04T13:31:22.314Z,66.8
2018-07-04T13:32:23.823Z,65.7
2018-07-04T13:33:25.115Z,66.0
2018-07-04T13:34:26.697Z,66.0
2018-07-04T13:35:28.135Z,65.6
2018-07-04T13:36:29.536Z,65.5
2018-07-04T13:37:30.939Z,65.5